Météo Nord-Pas-de-Calais   La météo au plus près de chez vous

Station météorologique

Observations météo à Vinnemerville (76746)

76746001 86 m Dernier relevé à 19:00
24.1°C
Humidité 48 % Vent 16.2 km/h

Journée consultée

Dimanche 6 Septembre 2026

Synthèse de la journée

Périodes de référence en UTC

Température maximale

24.5°C

à 18:24

06h 06h

Température minimale

11°C

à 00:54

18h 18h

Rafale maximale

35 km/h

à 10:30

00h 00h

Précipitations

0 mm

Cumul quotidien

06h 06h

Graphiques de la journée

Heure locale Réduire

Données détaillées

Relevés météo

Pas de 6 minutes Afficher les relevés infra-horaires
Relevés météo détaillés à Vinnemerville pour le Dimanche 6 Septembre 2026
Heure Température °C Point de rosée °C Humidité % Vent moyen (raf.), km/h Précipitations mm
19:00 24.1 °C 13.3 °C 51 % 12 km/h (21 km/h) 0 mm0 mm
18:54 24.1 °C 12.4 °C 48 % 14 km/h (22 km/h) 0 mm0 mm
18:48 24.3 °C 12.6 °C 48 % 16 km/h (24 km/h) 0 mm0 mm
18:42 24.3 °C 12.6 °C 48 % 14 km/h (24 km/h) 0 mm0 mm
18:36 24.2 °C 12.8 °C 49 % 13 km/h (20 km/h) 0 mm0 mm
18:30 24.5 °C 12.8 °C 48 % 15 km/h (22 km/h) 0 mm0 mm
18:24 24.5 °C 12.8 °C 48 % 15 km/h (23 km/h) 0 mm0 mm
18:18 24.2 °C 12.2 °C 47 % 14 km/h (21 km/h) 0 mm0 mm
18:12 23.8 °C 12.4 °C 49 % 14 km/h (23 km/h) 0 mm0 mm
18:06 24 °C 12.3 °C 48 % 15 km/h (23 km/h) 0 mm0 mm
18:00 24.1 °C 12.4 °C 48 % 16 km/h (23 km/h) 0 mm0 mm
17:54 24.2 °C 13.1 °C 50 % 17 km/h (24 km/h) 0 mm0 mm
17:48 23.9 °C 12.8 °C 50 % 17 km/h (25 km/h) 0 mm0 mm
17:42 24.1 °C 13 °C 50 % 16 km/h (25 km/h) 0 mm0 mm
17:36 23.9 °C 13.1 °C 51 % 15 km/h (22 km/h) 0 mm0 mm
17:30 23.8 °C 13.1 °C 51 % 14 km/h (20 km/h) 0 mm0 mm
17:24 23.7 °C 13 °C 51 % 12 km/h (19 km/h) 0 mm0 mm
17:18 23.4 °C 13 °C 52 % 12 km/h (19 km/h) 0 mm0 mm
17:12 23.3 °C 12.9 °C 52 % 13 km/h (21 km/h) 0 mm0 mm
17:06 23.4 °C 12.7 °C 51 % 13 km/h (21 km/h) 0 mm0 mm
17:00 23.9 °C 12.8 °C 50 % 12 km/h (18 km/h) 0 mm0 mm
16:54 23.3 °C 12.3 °C 50 % 11 km/h (21 km/h) 0 mm0 mm
16:48 23.1 °C 12.7 °C 52 % 12 km/h (19 km/h) 0 mm0 mm
16:42 23.2 °C 13.1 °C 53 % 14 km/h (22 km/h) 0 mm0 mm
16:36 23.5 °C 11.9 °C 48 % 15 km/h (25 km/h) 0 mm0 mm
16:30 23.7 °C 12.7 °C 50 % 13 km/h (22 km/h) 0 mm0 mm
16:24 24.4 °C 14.2 °C 53 % 10 km/h (20 km/h) 0 mm0 mm
16:18 23.6 °C 14.3 °C 56 % 11 km/h (19 km/h) 0 mm0 mm
16:12 23.7 °C 12.7 °C 50 % 14 km/h (24 km/h) 0 mm0 mm
16:06 24 °C 12.9 °C 50 % 14 km/h (24 km/h) 0 mm0 mm
16:00 23.7 °C 13.8 °C 54 % 13 km/h (20 km/h) 0 mm0 mm
15:54 23 °C 13.5 °C 55 % 10 km/h (18 km/h) 0 mm0 mm
15:48 22.4 °C 14.3 °C 60 % 9 km/h (13 km/h) 0 mm0 mm
15:42 21.4 °C 14.1 °C 63 % 9 km/h (14 km/h) 0 mm0 mm
15:36 21.3 °C 13 °C 59 % 9 km/h (15 km/h) 0 mm0 mm
15:30 21.2 °C 12.6 °C 58 % 9 km/h (15 km/h) 0 mm0 mm
15:24 21.4 °C 13.1 °C 59 % 8 km/h (15 km/h) 0 mm0 mm
15:18 21.4 °C 12.3 °C 56 % 9 km/h (15 km/h) 0 mm0 mm
15:12 21.3 °C 12.4 °C 57 % 11 km/h (18 km/h) 0 mm0 mm
15:06 21.4 °C 12.3 °C 56 % 13 km/h (19 km/h) 0 mm0 mm
15:00 21.3 °C 11.9 °C 55 % 13 km/h (18 km/h) 0 mm0 mm
14:54 21.5 °C 12.1 °C 55 % 14 km/h (19 km/h) 0 mm0 mm
14:48 21.5 °C 11.8 °C 54 % 14 km/h (23 km/h) 0 mm0 mm
14:42 21.3 °C 11.6 °C 54 % 14 km/h (23 km/h) 0 mm0 mm
14:36 21.3 °C 12.4 °C 57 % 12 km/h (19 km/h) 0 mm0 mm
14:30 21.6 °C 12.7 °C 57 % 10 km/h (15 km/h) 0 mm0 mm
14:24 21.5 °C 13.1 °C 59 % 9 km/h (14 km/h) 0 mm0 mm
14:18 21.2 °C 12.6 °C 58 % 10 km/h (16 km/h) 0 mm0 mm
14:12 21.2 °C 12.6 °C 58 % 9 km/h (13 km/h) 0 mm0 mm
14:06 21.2 °C 12.1 °C 56 % 9 km/h (14 km/h) 0 mm0 mm
14:00 21.1 °C 12.2 °C 57 % 12 km/h (21 km/h) 0 mm0 mm
13:54 20.9 °C 11.8 °C 56 % 11 km/h (21 km/h) 0 mm0 mm
13:48 20.9 °C 12.3 °C 58 % 9 km/h (16 km/h) 0 mm0 mm
13:42 20.9 °C 11.8 °C 56 % 10 km/h (20 km/h) 0 mm0 mm
13:36 20.8 °C 11.7 °C 56 % 12 km/h (20 km/h) 0 mm0 mm
13:30 21 °C 11.3 °C 54 % 10 km/h (19 km/h) 0 mm0 mm
13:24 21.1 °C 12.2 °C 57 % 9 km/h (15 km/h) 0 mm0 mm
13:18 21.2 °C 12.1 °C 56 % 10 km/h (18 km/h) 0 mm0 mm
13:12 21.3 °C 11.9 °C 55 % 15 km/h (27 km/h) 0 mm0 mm
13:06 21.4 °C 10.8 °C 51 % 17 km/h (27 km/h) 0 mm0 mm
13:00 21.5 °C 10.9 °C 51 % 19 km/h (31 km/h) 0 mm0 mm
12:54 21.7 °C 11.1 °C 51 % 21 km/h (31 km/h) 0 mm0 mm
12:48 21.9 °C 11.3 °C 51 % 20 km/h (30 km/h) 0 mm0 mm
12:42 21.9 °C 11.6 °C 52 % 18 km/h (30 km/h) 0 mm0 mm
12:36 21.8 °C 11.8 °C 53 % 17 km/h (26 km/h) 0 mm0 mm
12:30 22 °C 11.4 °C 51 % 16 km/h (21 km/h) 0 mm0 mm
12:24 21.9 °C 11.3 °C 51 % 19 km/h (30 km/h) 0 mm0 mm
12:18 21.9 °C 11 °C 50 % 21 km/h (30 km/h) 0 mm0 mm
12:12 22.8 °C 11.8 °C 50 % 21 km/h (29 km/h) 0 mm0 mm
12:06 22.5 °C 11.2 °C 49 % 21 km/h (30 km/h) 0 mm0 mm
12:00 22.3 °C 11.4 °C 50 % 21 km/h (34 km/h) 0 mm0 mm
11:54 22 °C 11.4 °C 51 % 23 km/h (35 km/h) 0 mm0 mm
11:48 21.8 °C 10.9 °C 50 % 24 km/h (35 km/h) 0 mm0 mm
11:42 21.7 °C 11.4 °C 52 % 23 km/h (33 km/h) 0 mm0 mm
11:36 21.5 °C 11.8 °C 54 % 23 km/h (31 km/h) 0 mm0 mm
11:30 21.5 °C 11.8 °C 54 % 22 km/h (32 km/h) 0 mm0 mm
11:24 21.4 °C 12 °C 55 % 21 km/h (32 km/h) 0 mm0 mm
11:18 21.2 °C 12.1 °C 56 % 21 km/h (32 km/h) 0 mm0 mm
11:12 20.8 °C 11.4 °C 55 % 22 km/h (32 km/h) 0 mm0 mm
11:06 20.7 °C 12.1 °C 58 % 21 km/h (32 km/h) 0 mm0 mm
11:00 20.3 °C 12 °C 59 % 23 km/h (31 km/h) 0 mm0 mm
10:54 20 °C 11.5 °C 58 % 22 km/h (31 km/h) 0 mm0 mm
10:48 19.9 °C 11.6 °C 59 % 22 km/h (32 km/h) 0 mm0 mm
10:42 19.7 °C 11.7 °C 60 % 24 km/h (35 km/h) 0 mm0 mm
10:36 19.4 °C 11.7 °C 61 % 24 km/h (35 km/h) 0 mm0 mm
10:30 19.3 °C 11.6 °C 61 % 22 km/h (35 km/h) 0 mm0 mm
10:24 19.1 °C 11.4 °C 61 % 20 km/h (30 km/h) 0 mm0 mm
10:18 19 °C 11.3 °C 61 % 19 km/h (30 km/h) 0 mm0 mm
10:12 18.8 °C 11.4 °C 62 % 19 km/h (30 km/h) 0 mm0 mm
10:06 18.7 °C 11.7 °C 64 % 17 km/h (26 km/h) 0 mm0 mm
10:00 18.6 °C 11.7 °C 64 % 16 km/h (26 km/h) 0 mm0 mm
09:54 18.5 °C 11.8 °C 65 % 15 km/h (24 km/h) 0 mm0 mm
09:48 18.1 °C 11.6 °C 66 % 16 km/h (29 km/h) 0 mm0 mm
09:42 17.8 °C 11.4 °C 66 % 15 km/h (23 km/h) 0 mm0 mm
09:36 17.6 °C 11.4 °C 67 % 17 km/h (28 km/h) 0 mm0 mm
09:30 17.3 °C 11.1 °C 67 % 17 km/h (29 km/h) 0 mm0 mm
09:24 17.1 °C 11.4 °C 69 % 15 km/h (29 km/h) 0 mm0 mm
09:18 16.9 °C 11.2 °C 69 % 13 km/h (22 km/h) 0 mm0 mm
09:12 16.7 °C 11.2 °C 70 % 13 km/h (18 km/h) 0 mm0 mm
09:06 16.4 °C 10.9 °C 70 % 13 km/h (19 km/h) 0 mm0 mm
09:00 16.2 °C 10.9 °C 71 % 13 km/h (19 km/h) 0 mm0 mm
08:54 15.9 °C 10.9 °C 72 % 13 km/h (20 km/h) 0 mm0 mm
08:48 15.6 °C 10.6 °C 72 % 14 km/h (22 km/h) 0 mm0 mm
08:42 15.3 °C 10.5 °C 73 % 13 km/h (23 km/h) 0 mm0 mm
08:36 15.2 °C 10.4 °C 73 % 17 km/h (27 km/h) 0 mm0 mm
08:30 15.1 °C 10.3 °C 73 % 17 km/h (27 km/h) 0 mm0 mm
08:24 15.1 °C 10.3 °C 73 % 17 km/h (31 km/h) 0 mm0 mm
08:18 14.8 °C 10.2 °C 74 % 15 km/h (27 km/h) 0 mm0 mm
08:12 14.6 °C 10.2 °C 75 % 17 km/h (28 km/h) 0 mm0 mm
08:06 14.5 °C 10.1 °C 75 % 19 km/h (34 km/h) 0 mm0 mm
08:00 14.5 °C 9.9 °C 74 % 22 km/h (34 km/h) 0 mm0 mm
07:54 14.3 °C 9.9 °C 75 % 23 km/h (33 km/h) 0 mm0 mm
07:48 14.2 °C 9.8 °C 75 % 22 km/h (33 km/h) 0 mm0 mm
07:42 14 °C 9.8 °C 76 % 21 km/h (32 km/h) 0 mm0 mm
07:36 14 °C 9.8 °C 76 % 21 km/h (31 km/h) 0 mm0 mm
07:30 14 °C 10 °C 77 % 21 km/h (31 km/h) 0 mm0 mm
07:24 13.9 °C 9.9 °C 77 % 19 km/h (27 km/h) 0 mm0 mm
07:18 13.9 °C 9.9 °C 77 % 18 km/h (28 km/h) 0 mm0 mm
07:12 13.8 °C 9.8 °C 77 % 17 km/h (28 km/h) 0 mm0 mm
07:06 14 °C 10 °C 77 % 16 km/h (26 km/h) 0 mm0 mm
07:00 13.8 °C 10 °C 78 % 16 km/h (24 km/h) 0 mm0 mm
06:54 13.5 °C 10.1 °C 80 % 13 km/h (24 km/h) 0 mm0 mm
06:48 13.4 °C 10 °C 80 % 9 km/h (13 km/h) 0 mm0 mm
06:42 13.4 °C 10 °C 80 % 9 km/h (12 km/h) 0 mm0 mm
06:36 13.5 °C 10.1 °C 80 % 10 km/h (19 km/h) 0 mm0 mm
06:30 13.6 °C 10.2 °C 80 % 12 km/h (19 km/h) 0 mm0 mm
06:24 13.6 °C 10.2 °C 80 % 12 km/h (19 km/h) 0 mm0 mm
06:18 13.8 °C 10.2 °C 79 % 12 km/h (20 km/h) 0 mm0 mm
06:12 13.7 °C 10.3 °C 80 % 11 km/h (18 km/h) 0 mm0 mm
06:06 13.3 °C 10.1 °C 81 % 9 km/h (15 km/h) 0 mm0 mm
06:00 13.1 °C 9.9 °C 81 % 8 km/h (14 km/h) 0 mm0 mm
05:54 13.8 °C 10 °C 78 % 8 km/h (13 km/h) 0 mm0 mm
05:48 13.9 °C 10.1 °C 78 % 9 km/h (14 km/h) 0 mm0 mm
05:42 14.1 °C 10.1 °C 77 % 9 km/h (14 km/h) 0 mm0 mm
05:36 14.3 °C 10.3 °C 77 % 9 km/h (15 km/h) 0 mm0 mm
05:30 14.3 °C 10.3 °C 77 % 10 km/h (16 km/h) 0 mm0 mm
05:24 14.3 °C 10.5 °C 78 % 11 km/h (17 km/h) 0 mm0 mm
05:18 14.3 °C 10.7 °C 79 % 12 km/h (17 km/h) 0 mm0 mm
05:12 14.1 °C 10.9 °C 81 % 12 km/h (17 km/h) 0 mm0 mm
05:06 13.8 °C 11 °C 83 % 10 km/h (15 km/h) 0 mm0 mm
05:00 13.7 °C 11 °C 84 % 10 km/h (15 km/h) 0 mm0 mm
04:54 13.4 °C 11.3 °C 87 % 9 km/h (15 km/h) 0 mm0 mm
04:48 13 °C 11.2 °C 89 % 8 km/h (12 km/h) 0 mm0 mm
04:42 12.7 °C 11.1 °C 90 % 9 km/h (13 km/h) 0 mm0 mm
04:36 12.2 °C 10.8 °C 91 % 8 km/h (13 km/h) 0 mm0 mm
04:30 12.2 °C 10.4 °C 89 % 8 km/h (11 km/h) 0 mm0 mm
04:24 12.4 °C 10.5 °C 88 % 8 km/h (10 km/h) 0 mm0 mm
04:18 12.8 °C 10.9 °C 88 % 7 km/h (11 km/h) 0 mm0 mm
04:12 13.2 °C 11.1 °C 87 % 8 km/h (12 km/h) 0 mm0 mm
04:06 13.3 °C 11.4 °C 88 % 9 km/h (16 km/h) 0 mm0 mm
04:00 13.4 °C 11.5 °C 88 % 8 km/h (16 km/h) 0 mm0 mm
03:54 13.3 °C 11.4 °C 88 % 6 km/h (10 km/h) 0 mm0 mm
03:48 13.4 °C 11.6 °C 89 % 6 km/h (10 km/h) 0 mm0 mm
03:42 13.3 °C 11.5 °C 89 % 6 km/h (10 km/h) 0 mm0 mm
03:36 13.5 °C 11.7 °C 89 % 6 km/h (12 km/h) 0 mm0 mm
03:30 13.4 °C 11.8 °C 90 % 6 km/h (12 km/h) 0 mm0 mm
03:24 13.3 °C 11.9 °C 91 % 7 km/h (9 km/h) 0 mm0 mm
03:18 13.2 °C 11.9 °C 92 % 7 km/h (11 km/h) 0 mm0 mm
03:12 13.1 °C 12 °C 93 % 7 km/h (10 km/h) 0 mm0 mm
03:06 12.9 °C 12 °C 94 % 7 km/h (10 km/h) 0 mm0 mm
03:00 12.6 °C 11.7 °C 94 % 7 km/h (10 km/h) 0 mm0 mm
02:54 12.6 °C 11.7 °C 94 % 8 km/h (13 km/h) 0 mm0 mm
02:48 12.3 °C 11.5 °C 95 % 8 km/h (12 km/h) 0 mm0 mm
02:42 11.9 °C 11.1 °C 95 % 6 km/h (8 km/h) 0 mm0 mm
02:36 11.8 °C 10.9 °C 94 % 6 km/h (7 km/h) 0 mm0 mm
02:30 11.7 °C 10.8 °C 94 % 6 km/h (8 km/h) 0 mm0 mm
02:24 11.6 °C 10.7 °C 94 % 6 km/h (8 km/h) 0 mm0 mm
02:18 11.5 °C 10.6 °C 94 % 6 km/h (8 km/h) 0 mm0 mm
02:12 11.5 °C 10.6 °C 94 % 6 km/h (8 km/h) 0 mm0 mm
02:06 11.5 °C 10.6 °C 94 % 8 km/h (9 km/h) 0 mm0 mm
02:00 11.6 °C 10.7 °C 94 % 8 km/h (9 km/h) 0 mm0 mm
01:54 11.6 °C 10.7 °C 94 % 7 km/h (9 km/h) 0 mm0 mm
01:48 11.6 °C 10.7 °C 94 % 6 km/h (8 km/h) 0 mm0 mm
01:42 11.5 °C 10.6 °C 94 % 7 km/h (9 km/h) 0 mm0 mm
01:36 11.3 °C 10.4 °C 94 % 6 km/h (9 km/h) 0 mm0 mm
01:30 11.3 °C 10.4 °C 94 % 4 km/h (6 km/h) 0 mm0 mm
01:24 11.2 °C 10.3 °C 94 % 3 km/h (4 km/h) 0 mm0 mm
01:18 11.4 °C 10.5 °C 94 % 3 km/h (4 km/h) 0 mm0 mm
01:12 11.3 °C 10.4 °C 94 % 4 km/h (6 km/h) 0 mm0 mm
01:06 11.3 °C 10.4 °C 94 % 4 km/h (6 km/h) 0 mm0 mm
01:00 11.4 °C 10.5 °C 94 % 6 km/h (8 km/h) 0 mm0.2 mm
00:54 11 °C 9.7 °C 92 % 6 km/h (8 km/h) 0.2 mm0 mm
00:48 11.3 °C 10 °C 92 % 5 km/h (5 km/h) 0 mm0 mm
00:42 11.3 °C 10 °C 92 % 4 km/h (5 km/h) 0 mm0 mm
00:36 11.9 °C 10.8 °C 93 % 4 km/h (5 km/h) 0 mm0 mm
00:30 12 °C 10.7 °C 92 % 4 km/h (5 km/h) 0 mm0 mm
00:24 12.1 °C 11 °C 93 % 3 km/h (4 km/h) 0 mm0 mm
00:18 12.1 °C 11 °C 93 % 4 km/h (5 km/h) 0 mm0 mm
00:12 11.9 °C 10.6 °C 92 % 4 km/h (5 km/h) 0 mm0 mm
00:06 11.9 °C 10.6 °C 92 % 5 km/h (6 km/h) 0 mm0 mm
00:00 12.1 °C 10.8 °C 92 % 4 km/h (6 km/h) 0 mm0 mm

Données via Météo-France

Relevés météo à Vinnemerville

Cette page rassemble les observations de la station de Vinnemerville : température, humidité, vent, précipitations et pression atmosphérique. Les graphiques facilitent le suivi de la journée, tandis que le tableau donne accès aux mesures horaires et infra-horaires disponibles.

Pour replacer ces mesures dans leur contexte, consultez la climatologie de Vinnemerville. Retrouvez aussi la carte des observations météo en temps réel.